createdAt,value
2018-08-27T00:00:04.620Z,1.27
2018-08-27T00:02:32.912Z,1.40
2018-08-27T00:05:01.195Z,1.07
2018-08-27T00:07:29.471Z,1.17
2018-08-27T00:09:57.747Z,1.10
2018-08-27T00:12:26.031Z,1.30
2018-08-27T00:14:54.299Z,1.27
2018-08-27T00:17:22.570Z,1.40
2018-08-27T00:19:50.843Z,1.10
2018-08-27T00:22:19.103Z,1.10
2018-08-27T00:24:47.400Z,1.33
2018-08-27T00:27:15.660Z,1.20
2018-08-27T00:29:43.958Z,1.47
2018-08-27T00:32:12.261Z,1.47
2018-08-27T00:34:40.520Z,1.13
2018-08-27T00:37:08.791Z,1.00
2018-08-27T00:39:37.044Z,1.20
2018-08-27T00:42:05.300Z,1.53
2018-08-27T00:44:33.551Z,1.47
2018-08-27T00:47:01.862Z,1.13
2018-08-27T00:49:30.251Z,1.20
2018-08-27T00:51:58.872Z,1.20
2018-08-27T00:54:27.298Z,1.47
2018-08-27T00:56:55.603Z,0.93
2018-08-27T00:59:23.914Z,1.87
2018-08-27T01:01:52.404Z,1.50
2018-08-27T01:04:20.883Z,1.40
2018-08-27T01:09:22.472Z,1.30
2018-08-27T01:11:51.048Z,1.37
2018-08-27T01:14:19.551Z,1.30
2018-08-27T01:16:47.977Z,1.27
2018-08-27T01:19:16.383Z,1.20
2018-08-27T01:21:46.024Z,1.33
2018-08-27T01:24:15.772Z,1.37
2018-08-27T01:26:44.647Z,1.50
2018-08-27T01:29:13.376Z,1.40
2018-08-27T01:31:41.811Z,1.00
2018-08-27T01:34:10.287Z,1.40
2018-08-27T01:36:38.728Z,1.50
2018-08-27T01:39:07.831Z,1.40
2018-08-27T01:41:37.267Z,1.30
2018-08-27T01:44:05.839Z,1.40
2018-08-27T01:46:34.262Z,1.10
2018-08-27T01:49:02.740Z,1.27
2018-08-27T01:51:31.083Z,1.23
2018-08-27T01:53:59.427Z,1.50
2018-08-27T01:56:27.920Z,1.20
2018-08-27T01:58:56.376Z,1.37
2018-08-27T02:01:24.877Z,1.40
2018-08-27T02:03:53.392Z,1.43
2018-08-27T02:06:21.830Z,1.50
2018-08-27T02:08:50.199Z,1.50
2018-08-27T02:11:18.882Z,1.47
2018-08-27T02:13:47.343Z,1.73
2018-08-27T02:16:15.779Z,1.20
2018-08-27T02:18:44.246Z,1.40
2018-08-27T02:21:12.660Z,1.80
2018-08-27T02:23:41.204Z,1.23
2018-08-27T02:26:09.718Z,1.57
2018-08-27T02:28:38.118Z,1.60
2018-08-27T02:31:06.466Z,1.40
2018-08-27T02:33:34.843Z,1.60
2018-08-27T02:36:03.492Z,1.63
2018-08-27T02:38:32.195Z,1.80
2018-08-27T02:41:00.673Z,1.67
2018-08-27T02:43:29.083Z,1.40
2018-08-27T02:45:57.445Z,1.40
2018-08-27T02:48:25.824Z,1.57
2018-08-27T02:50:54.311Z,1.67
2018-08-27T02:53:22.763Z,1.63
2018-08-27T02:55:51.177Z,1.20
2018-08-27T02:58:19.551Z,1.73
2018-08-27T03:00:47.962Z,1.43
2018-08-27T03:03:16.640Z,1.50
2018-08-27T03:05:45.074Z,1.80
2018-08-27T03:08:13.513Z,1.70
2018-08-27T03:10:41.873Z,2.70
2018-08-27T03:13:10.246Z,1.57
2018-08-27T03:15:38.619Z,1.80
2018-08-27T03:18:07.147Z,1.60
2018-08-27T03:20:35.867Z,1.50
2018-08-27T03:23:04.291Z,1.63
2018-08-27T03:25:32.976Z,1.50
2018-08-27T03:28:01.347Z,1.90
2018-08-27T03:30:32.598Z,1.70
2018-08-27T03:33:01.035Z,1.63
2018-08-27T03:35:29.381Z,2.00
2018-08-27T03:37:57.763Z,1.77
2018-08-27T03:40:26.159Z,1.57
2018-08-27T03:42:54.592Z,1.70
2018-08-27T03:45:23.016Z,1.70
2018-08-27T03:47:51.431Z,1.70
2018-08-27T03:50:19.824Z,1.60
2018-08-27T03:52:48.208Z,2.10
2018-08-27T03:55:16.755Z,1.97
2018-08-27T03:57:45.159Z,1.90
2018-08-27T04:00:13.533Z,1.50
2018-08-27T04:02:42.005Z,1.60
2018-08-27T04:05:10.413Z,1.67
2018-08-27T04:07:38.876Z,2.07
2018-08-27T04:10:07.373Z,1.80
2018-08-27T04:12:35.671Z,1.87
2018-08-27T04:15:04.111Z,2.10
2018-08-27T04:17:33.913Z,1.93
2018-08-27T04:20:03.435Z,2.20
2018-08-27T04:22:31.945Z,2.20
2018-08-27T04:25:00.460Z,2.37
2018-08-27T04:27:28.920Z,1.90
2018-08-27T04:29:57.380Z,1.73
2018-08-27T04:32:25.766Z,2.13
2018-08-27T04:34:54.297Z,2.33
2018-08-27T04:37:22.964Z,2.40
2018-08-27T04:39:51.584Z,2.17
2018-08-27T04:42:20.191Z,1.97
2018-08-27T04:44:48.560Z,2.03
2018-08-27T04:47:16.916Z,3.13
2018-08-27T04:49:45.272Z,2.10
2018-08-27T04:52:14.035Z,2.70
2018-08-27T04:54:42.751Z,2.07
2018-08-27T04:57:11.287Z,2.30
2018-08-27T04:59:43.421Z,2.20
2018-08-27T05:02:11.944Z,1.80
2018-08-27T05:04:40.396Z,2.03
2018-08-27T05:07:08.795Z,2.40
2018-08-27T05:09:37.232Z,2.10
2018-08-27T05:12:05.601Z,2.33
2018-08-27T05:14:33.893Z,2.40
2018-08-27T05:17:03.592Z,1.87
2018-08-27T05:19:31.891Z,2.63
2018-08-27T05:22:01.036Z,2.10
2018-08-27T05:24:29.582Z,2.23
2018-08-27T05:26:57.925Z,2.43
2018-08-27T05:29:26.346Z,2.80
2018-08-27T05:31:54.780Z,2.00
2018-08-27T05:34:25.323Z,2.10
2018-08-27T05:36:53.637Z,2.20
2018-08-27T05:39:22.008Z,2.27
2018-08-27T05:41:50.382Z,2.23
2018-08-27T05:44:18.829Z,2.77
2018-08-27T05:46:47.546Z,2.53
2018-08-27T05:49:15.827Z,2.50
2018-08-27T05:51:44.182Z,2.70
2018-08-27T05:54:12.551Z,1.97
2018-08-27T05:56:40.995Z,2.07
2018-08-27T05:59:09.439Z,1.80
2018-08-27T06:01:37.855Z,2.60
2018-08-27T06:04:06.292Z,1.93
2018-08-27T06:06:34.644Z,2.47
2018-08-27T06:09:03.013Z,2.90
2018-08-27T06:11:31.374Z,2.43
2018-08-27T06:13:59.762Z,2.27
2018-08-27T06:16:28.077Z,2.50
2018-08-27T06:18:56.437Z,2.63
2018-08-27T06:21:24.800Z,2.50
2018-08-27T06:23:53.183Z,2.30
2018-08-27T06:26:21.544Z,2.30
2018-08-27T06:28:49.909Z,2.67
2018-08-27T06:31:18.287Z,2.10
2018-08-27T06:33:46.695Z,2.30
2018-08-27T06:36:15.139Z,2.20
2018-08-27T06:38:43.543Z,2.80
2018-08-27T06:41:11.918Z,1.73
2018-08-27T06:43:40.307Z,2.00
2018-08-27T06:46:09.294Z,2.10
2018-08-27T06:48:37.645Z,2.03
2018-08-27T06:51:06.058Z,1.80
2018-08-27T06:53:34.503Z,1.90
2018-08-27T06:56:02.892Z,1.83
2018-08-27T06:58:31.291Z,1.90
2018-08-27T07:00:59.692Z,2.27
2018-08-27T07:03:28.174Z,2.63
2018-08-27T07:05:56.650Z,1.70
2018-08-27T07:08:25.044Z,1.80
2018-08-27T07:10:53.547Z,1.73
2018-08-27T07:13:21.995Z,1.53
2018-08-27T07:15:50.441Z,1.90
2018-08-27T07:18:18.839Z,1.73
2018-08-27T07:20:47.299Z,1.70
2018-08-27T07:23:15.699Z,1.73
2018-08-27T07:25:44.120Z,1.67
2018-08-27T07:28:12.566Z,1.70
2018-08-27T07:30:40.991Z,1.80
2018-08-27T07:33:09.371Z,1.50
2018-08-27T07:35:37.844Z,1.30
2018-08-27T07:38:06.367Z,1.43
2018-08-27T07:40:34.664Z,1.30
2018-08-27T07:43:03.080Z,1.20
2018-08-27T07:45:31.504Z,1.43
2018-08-27T07:47:59.895Z,1.17
2018-08-27T07:50:28.316Z,1.20
2018-08-27T07:52:56.847Z,1.07
2018-08-27T07:55:25.417Z,0.97
2018-08-27T07:57:53.852Z,1.20
2018-08-27T08:00:23.371Z,0.80
2018-08-27T08:02:53.053Z,1.00
2018-08-27T08:05:21.505Z,1.13
2018-08-27T08:07:50.140Z,0.80
2018-08-27T08:10:18.762Z,0.90
2018-08-27T08:12:48.139Z,0.80
2018-08-27T08:15:16.727Z,0.70
2018-08-27T08:17:45.142Z,0.70
2018-08-27T08:20:13.623Z,0.90
2018-08-27T08:22:42.201Z,0.90
2018-08-27T08:25:10.519Z,1.00
2018-08-27T08:27:39.088Z,0.80
2018-08-27T08:30:07.639Z,0.80
2018-08-27T08:32:36.055Z,1.10
2018-08-27T08:35:04.701Z,0.90
2018-08-27T08:37:33.075Z,0.73
2018-08-27T08:40:01.914Z,0.90
2018-08-27T08:42:30.104Z,0.83
2018-08-27T08:44:58.520Z,0.90
2018-08-27T08:47:26.933Z,0.97
2018-08-27T08:49:55.308Z,0.90
2018-08-27T08:52:23.903Z,0.83
2018-08-27T08:54:52.307Z,0.90
2018-08-27T08:57:20.708Z,0.70
2018-08-27T08:59:49.099Z,0.90
2018-08-27T09:02:17.471Z,1.00
2018-08-27T09:04:45.954Z,1.00
2018-08-27T09:07:14.319Z,1.10
2018-08-27T09:09:42.903Z,0.80
2018-08-27T09:12:11.199Z,0.97
2018-08-27T09:14:39.558Z,0.83
2018-08-27T09:17:07.987Z,0.90
2018-08-27T09:19:36.324Z,1.10
2018-08-27T09:22:04.695Z,1.10
2018-08-27T09:24:33.109Z,1.20
2018-08-27T09:27:01.459Z,1.57
2018-08-27T09:29:30.040Z,1.27
2018-08-27T09:31:58.355Z,1.20
2018-08-27T09:34:26.835Z,1.70
2018-08-27T09:36:55.240Z,1.60
2018-08-27T09:39:23.526Z,1.90
2018-08-27T09:41:52.002Z,2.20
2018-08-27T09:44:20.421Z,1.77
2018-08-27T09:46:48.941Z,1.80
2018-08-27T09:49:17.274Z,1.80
2018-08-27T09:51:45.622Z,1.83
2018-08-27T09:54:14.127Z,2.53
2018-08-27T09:56:42.649Z,2.97
2018-08-27T09:59:11.229Z,3.00
2018-08-27T10:01:43.698Z,2.90
2018-08-27T10:04:12.125Z,2.90
2018-08-27T10:06:40.496Z,3.17
2018-08-27T10:09:08.937Z,3.03
2018-08-27T10:11:37.364Z,3.53
2018-08-27T10:14:05.806Z,3.57
2018-08-27T10:16:34.361Z,4.40
2018-08-27T10:19:02.679Z,3.30
2018-08-27T10:21:31.082Z,3.90
2018-08-27T10:23:59.608Z,4.50
2018-08-27T10:26:28.085Z,4.23
2018-08-27T10:28:56.467Z,4.03
2018-08-27T10:31:24.874Z,3.93
2018-08-27T10:33:53.275Z,4.37
2018-08-27T10:36:22.635Z,4.57
2018-08-27T10:38:50.967Z,5.27
2018-08-27T10:41:19.267Z,4.77
2018-08-27T10:43:47.550Z,4.70
2018-08-27T10:46:15.876Z,4.40
2018-08-27T10:48:44.365Z,5.40
2018-08-27T10:51:12.752Z,4.43
2018-08-27T10:53:41.182Z,4.60
2018-08-27T10:56:09.623Z,4.37
2018-08-27T10:58:38.036Z,4.87
2018-08-27T11:01:06.463Z,3.97
2018-08-27T11:03:34.855Z,4.20
2018-08-27T11:06:03.211Z,3.50
2018-08-27T11:08:31.573Z,3.47
2018-08-27T11:10:59.974Z,4.03
2018-08-27T11:13:28.410Z,4.30
2018-08-27T11:15:57.695Z,5.20
2018-08-27T11:18:25.979Z,6.30
2018-08-27T11:20:54.272Z,5.77
2018-08-27T11:23:22.585Z,5.53
2018-08-27T11:25:52.792Z,4.00
2018-08-27T11:28:21.454Z,4.23
2018-08-27T11:30:49.916Z,4.30
2018-08-27T11:33:18.455Z,5.03
2018-08-27T11:35:46.959Z,4.00
2018-08-27T11:38:15.492Z,4.50
2018-08-27T11:40:43.847Z,4.30
2018-08-27T11:43:12.344Z,3.93
2018-08-27T11:45:40.804Z,3.67
2018-08-27T11:48:10.273Z,3.70
2018-08-27T11:50:38.784Z,3.40
2018-08-27T11:53:07.060Z,3.80
2018-08-27T11:55:35.383Z,3.87
2018-08-27T11:58:03.727Z,4.90
2018-08-27T12:00:37.392Z,4.83
2018-08-27T12:03:05.666Z,4.97
2018-08-27T12:05:33.988Z,4.53
2018-08-27T12:08:02.316Z,4.90
2018-08-27T12:10:30.755Z,4.93
2018-08-27T12:12:59.188Z,5.47
2018-08-27T12:15:27.549Z,6.47
2018-08-27T12:17:55.897Z,6.23
2018-08-27T12:20:24.309Z,7.30
2018-08-27T12:22:52.676Z,7.70
2018-08-27T12:25:21.029Z,7.20
2018-08-27T12:27:49.483Z,7.90
2018-08-27T12:30:17.859Z,9.17
2018-08-27T12:32:46.256Z,9.17
2018-08-27T12:35:14.679Z,9.93
2018-08-27T12:37:43.183Z,9.50
2018-08-27T12:40:11.564Z,9.37
2018-08-27T12:42:40.122Z,9.80
2018-08-27T12:45:08.547Z,10.40
2018-08-27T12:47:36.926Z,10.07
2018-08-27T12:50:05.347Z,9.23
2018-08-27T12:52:33.925Z,9.00
2018-08-27T12:55:02.296Z,10.30
2018-08-27T12:57:30.783Z,10.73
2018-08-27T12:59:59.192Z,9.97
2018-08-27T13:02:27.645Z,9.83
2018-08-27T13:04:57.065Z,10.20
2018-08-27T13:07:25.517Z,9.37
2018-08-27T13:09:53.964Z,9.20
2018-08-27T13:12:22.420Z,7.90
2018-08-27T13:14:50.853Z,8.50
2018-08-27T13:17:19.344Z,8.93
2018-08-27T13:19:47.906Z,8.20
2018-08-27T13:22:17.339Z,8.73
2018-08-27T13:24:45.773Z,8.43
2018-08-27T13:27:14.214Z,9.40
2018-08-27T13:29:42.616Z,9.37
2018-08-27T13:32:11.432Z,9.30
2018-08-27T13:34:39.854Z,8.80
2018-08-27T13:37:08.555Z,7.93
2018-08-27T13:39:37.122Z,8.17
2018-08-27T13:42:05.492Z,7.30
2018-08-27T13:44:33.956Z,6.70
2018-08-27T13:47:02.346Z,5.53
2018-08-27T13:49:30.763Z,5.23
2018-08-27T13:52:01.915Z,6.13
2018-08-27T13:54:31.060Z,5.83
2018-08-27T13:56:59.703Z,6.57
2018-08-27T13:59:28.130Z,6.53
2018-08-27T14:01:57.946Z,6.90
2018-08-27T14:04:27.071Z,6.70
2018-08-27T14:06:55.479Z,6.20
2018-08-27T14:09:23.882Z,7.27
2018-08-27T14:11:52.383Z,6.50
2018-08-27T14:14:20.873Z,6.77
2018-08-27T14:16:49.328Z,7.17
2018-08-27T14:19:17.821Z,7.03
2018-08-27T14:21:46.194Z,7.70
2018-08-27T14:24:14.599Z,7.00
2018-08-27T14:26:43.259Z,6.50
2018-08-27T14:29:11.699Z,7.60
2018-08-27T14:31:42.038Z,7.97
2018-08-27T14:34:10.945Z,7.80
2018-08-27T14:36:39.393Z,7.50
2018-08-27T14:39:09.647Z,7.83
2018-08-27T14:41:39.182Z,7.37
2018-08-27T14:44:07.621Z,7.67
2018-08-27T14:46:36.270Z,7.83
2018-08-27T14:49:04.854Z,7.87
2018-08-27T14:51:33.317Z,7.60
2018-08-27T14:54:01.797Z,7.00
2018-08-27T14:56:30.639Z,7.90
2018-08-27T14:59:00.147Z,7.90
2018-08-27T15:01:28.725Z,7.53
2018-08-27T15:03:58.098Z,6.90
2018-08-27T15:06:26.473Z,6.10
2018-08-27T15:08:54.821Z,6.20
2018-08-27T15:11:23.172Z,6.60
2018-08-27T15:13:51.559Z,6.67
2018-08-27T15:16:19.988Z,6.70
2018-08-27T15:18:48.504Z,5.73
2018-08-27T15:21:16.988Z,5.70
2018-08-27T15:23:45.473Z,6.20
2018-08-27T15:26:13.959Z,5.90
2018-08-27T15:28:42.465Z,6.07
2018-08-27T15:31:10.912Z,5.37
2018-08-27T15:33:39.252Z,6.30
2018-08-27T15:36:07.628Z,6.30
2018-08-27T15:38:37.067Z,5.97
2018-08-27T15:41:06.251Z,5.73
2018-08-27T15:43:34.640Z,5.90
2018-08-27T15:46:08.307Z,5.73
2018-08-27T15:48:36.589Z,6.03
2018-08-27T15:51:04.966Z,6.30
2018-08-27T15:53:33.207Z,5.97
2018-08-27T15:56:02.560Z,5.30
2018-08-27T15:58:30.867Z,5.60
2018-08-27T16:01:00.047Z,5.40
2018-08-27T16:03:28.363Z,5.23
2018-08-27T16:05:56.769Z,5.00
2018-08-27T16:08:27.106Z,5.10
2018-08-27T16:10:55.429Z,5.73
2018-08-27T16:13:24.186Z,5.60
2018-08-27T16:15:52.496Z,5.27
2018-08-27T16:18:21.973Z,5.67
2018-08-27T16:20:50.322Z,5.43
2018-08-27T16:23:18.726Z,5.30
2018-08-27T16:25:46.987Z,5.10
2018-08-27T16:28:15.425Z,5.47
2018-08-27T16:30:43.699Z,5.60
2018-08-27T16:33:12.033Z,5.70
2018-08-27T16:35:40.307Z,5.10
2018-08-27T16:38:08.883Z,5.57
2018-08-27T16:40:37.167Z,4.77
2018-08-27T16:43:05.477Z,5.10
2018-08-27T16:45:34.767Z,5.57
2018-08-27T16:48:03.047Z,5.60
2018-08-27T16:50:31.336Z,5.10
2018-08-27T16:52:59.638Z,5.17
2018-08-27T16:55:27.919Z,5.30
2018-08-27T16:57:56.210Z,5.60
2018-08-27T17:00:24.549Z,4.80
2018-08-27T17:02:52.867Z,5.27
2018-08-27T17:05:21.235Z,6.13
2018-08-27T17:07:49.587Z,5.53
2018-08-27T17:10:17.969Z,5.20
2018-08-27T17:12:47.287Z,4.90
2018-08-27T17:15:15.603Z,5.63
2018-08-27T17:17:43.932Z,5.87
2018-08-27T17:20:12.260Z,5.37
2018-08-27T17:22:40.652Z,5.37
2018-08-27T17:25:08.958Z,4.93
2018-08-27T17:27:37.359Z,5.00
2018-08-27T17:30:05.995Z,5.60
2018-08-27T17:32:34.401Z,4.90
2018-08-27T17:35:08.956Z,5.10
2018-08-27T17:37:37.283Z,4.97
2018-08-27T17:40:05.807Z,5.83
2018-08-27T17:42:34.162Z,5.13
2018-08-27T17:45:02.609Z,5.83
2018-08-27T17:47:31.896Z,5.47
2018-08-27T17:50:00.187Z,5.37
2018-08-27T17:52:28.504Z,6.10
2018-08-27T17:54:56.806Z,5.13
2018-08-27T17:57:25.084Z,5.70
2018-08-27T17:59:54.432Z,5.20
2018-08-27T18:02:22.706Z,5.40
2018-08-27T18:04:51.086Z,5.17
2018-08-27T18:07:19.302Z,5.43
2018-08-27T18:09:47.608Z,4.80
2018-08-27T18:12:16.035Z,4.63
2018-08-27T18:14:44.443Z,6.33
2018-08-27T18:17:12.763Z,5.70
2018-08-27T18:19:41.187Z,5.17
2018-08-27T18:22:09.438Z,4.77
2018-08-27T18:24:37.807Z,5.57
2018-08-27T18:27:06.112Z,5.03
2018-08-27T18:29:34.493Z,5.10
2018-08-27T18:32:03.927Z,5.70
2018-08-27T18:34:32.294Z,5.40
2018-08-27T18:37:00.635Z,5.00
2018-08-27T18:39:28.920Z,5.40
2018-08-27T18:41:57.460Z,5.00
2018-08-27T18:44:25.766Z,4.50
2018-08-27T18:46:54.043Z,5.67
2018-08-27T18:49:22.342Z,5.17
2018-08-27T18:51:50.645Z,5.10
2018-08-27T18:54:18.915Z,4.33
2018-08-27T18:56:47.192Z,5.60
2018-08-27T18:59:15.499Z,4.97
2018-08-27T19:01:44.615Z,5.83
2018-08-27T19:04:13.115Z,5.60
2018-08-27T19:06:41.554Z,5.77
2018-08-27T19:09:10.310Z,5.87
2018-08-27T19:11:38.604Z,5.87
2018-08-27T19:14:08.227Z,6.20
2018-08-27T19:16:37.053Z,5.60
2018-08-27T19:19:05.435Z,6.17
2018-08-27T19:21:33.787Z,6.23
2018-08-27T19:24:02.161Z,6.00
2018-08-27T19:26:30.440Z,5.30
2018-08-27T19:29:01.292Z,6.40
2018-08-27T19:31:29.546Z,6.30
2018-08-27T19:33:57.872Z,5.23
2018-08-27T19:36:26.338Z,6.57
2018-08-27T19:38:54.447Z,6.27
2018-08-27T19:41:22.848Z,5.53
2018-08-27T19:43:53.189Z,6.13
2018-08-27T19:46:21.519Z,5.73
2018-08-27T19:48:49.909Z,5.60
2018-08-27T19:51:18.183Z,5.90
2018-08-27T19:53:46.491Z,5.97
2018-08-27T19:56:14.941Z,5.43
2018-08-27T19:58:43.246Z,6.07
2018-08-27T20:01:11.567Z,6.23
2018-08-27T20:03:39.927Z,5.37
2018-08-27T20:06:08.249Z,6.47
2018-08-27T20:08:58.479Z,4.93
2018-08-27T20:11:26.784Z,5.73
2018-08-27T20:13:55.089Z,5.93
2018-08-27T20:16:23.412Z,5.10
2018-08-27T20:18:51.646Z,5.40
2018-08-27T20:21:19.939Z,5.70
2018-08-27T20:23:48.344Z,5.83
2018-08-27T20:26:16.678Z,5.70
2018-08-27T20:28:44.918Z,5.10
2018-08-27T20:31:13.200Z,5.80
2018-08-27T20:33:44.375Z,5.93
2018-08-27T20:36:12.719Z,6.33
2018-08-27T20:38:41.037Z,6.60
2018-08-27T20:41:09.394Z,5.90
2018-08-27T20:43:38.680Z,6.10
2018-08-27T20:46:07.120Z,5.70
2018-08-27T20:48:35.536Z,6.63
2018-08-27T20:51:03.940Z,6.80
2018-08-27T20:56:21.739Z,7.10
2018-08-27T20:58:50.192Z,8.43
2018-08-27T21:01:18.532Z,8.03
2018-08-27T21:03:46.831Z,10.47
2018-08-27T21:06:15.483Z,10.70
2018-08-27T21:08:43.930Z,11.80
2018-08-27T21:11:12.405Z,13.70
2018-08-27T21:13:40.941Z,14.60
2018-08-27T21:16:09.286Z,16.37
2018-08-27T21:18:37.699Z,16.80
2018-08-27T21:21:06.311Z,18.20
2018-08-27T21:23:34.926Z,18.10
2018-08-27T21:26:04.269Z,18.37
2018-08-27T21:28:32.638Z,18.20
2018-08-27T21:31:00.918Z,18.07
2018-08-27T21:33:29.183Z,17.10
2018-08-27T21:35:57.458Z,17.20
2018-08-27T21:38:25.729Z,17.30
2018-08-27T21:40:53.984Z,16.73
2018-08-27T21:43:22.266Z,16.30
2018-08-27T21:45:50.549Z,15.93
2018-08-27T21:48:18.866Z,15.80
2018-08-27T21:50:47.134Z,16.50
2018-08-27T21:53:15.409Z,16.43
2018-08-27T21:55:43.684Z,16.20
2018-08-27T21:58:11.948Z,14.33
2018-08-27T22:00:45.455Z,16.50
2018-08-27T22:03:18.983Z,17.13
2018-08-27T22:05:47.312Z,17.13
2018-08-27T22:08:15.611Z,15.30
2018-08-27T22:10:43.951Z,17.93
2018-08-27T22:13:12.249Z,17.60
2018-08-27T22:15:40.622Z,16.67
2018-08-27T22:18:08.902Z,16.93
2018-08-27T22:20:37.229Z,15.80
2018-08-27T22:23:05.735Z,18.77
2018-08-27T22:25:34.089Z,18.40
2018-08-27T22:28:02.350Z,18.80
2018-08-27T22:30:31.740Z,20.47
2018-08-27T22:33:00.057Z,20.40
2018-08-27T22:35:28.372Z,23.37
2018-08-27T22:37:56.671Z,21.90
2018-08-27T22:40:25.020Z,20.77
2018-08-27T22:42:54.504Z,20.17
2018-08-27T22:45:22.847Z,20.73
2018-08-27T22:47:51.167Z,22.17
2018-08-27T22:50:19.483Z,18.90
2018-08-27T22:52:47.771Z,19.57
2018-08-27T22:55:16.105Z,18.10
2018-08-27T22:57:44.388Z,18.97
2018-08-27T23:00:12.728Z,19.70
2018-08-27T23:02:46.331Z,18.73
2018-08-27T23:05:14.593Z,18.20
2018-08-27T23:07:42.903Z,15.67
2018-08-27T23:10:11.323Z,13.20
2018-08-27T23:12:39.682Z,13.27
2018-08-27T23:15:08.045Z,13.03
2018-08-27T23:17:37.471Z,12.10
2018-08-27T23:20:05.955Z,12.20
2018-08-27T23:22:34.329Z,12.37
2018-08-27T23:25:02.777Z,12.10
2018-08-27T23:27:31.224Z,12.27
2018-08-27T23:29:59.627Z,11.27
2018-08-27T23:32:28.044Z,11.50
2018-08-27T23:35:07.943Z,10.60
2018-08-27T23:37:39.153Z,10.60
2018-08-27T23:40:07.553Z,11.37
2018-08-27T23:42:35.891Z,11.10
2018-08-27T23:45:04.349Z,11.50
2018-08-27T23:47:32.704Z,11.47
2018-08-27T23:50:01.064Z,12.57
2018-08-27T23:52:29.480Z,11.17
2018-08-27T23:54:57.801Z,12.20
2018-08-27T23:57:26.225Z,11.87
2018-08-27T23:59:54.520Z,11.40
